createdAt,value
2018-02-15T00:01:25.939Z,69.36
2018-02-15T00:03:53.515Z,69.34
2018-02-15T00:06:21.041Z,69.13
2018-02-15T00:08:48.594Z,68.20
2018-02-15T00:11:16.127Z,67.69
2018-02-15T00:13:43.674Z,67.09
2018-02-15T00:16:11.254Z,66.57
2018-02-15T00:18:38.831Z,66.59
2018-02-15T00:21:06.355Z,65.98
2018-02-15T00:23:33.928Z,66.83
2018-02-15T00:26:01.488Z,66.36
2018-02-15T00:28:29.012Z,66.31
2018-02-15T00:30:56.591Z,66.70
2018-02-15T00:33:24.116Z,66.13
2018-02-15T00:35:51.668Z,65.66
2018-02-15T00:38:19.272Z,65.23
2018-02-15T00:40:46.823Z,65.61
2018-02-15T00:43:14.401Z,65.48
2018-02-15T00:45:41.979Z,65.95
2018-02-15T00:48:09.506Z,65.68
2018-02-15T00:50:37.032Z,65.04
2018-02-15T00:53:04.638Z,65.00
2018-02-15T00:55:32.486Z,64.76
2018-02-15T00:58:00.064Z,64.89
2018-02-15T01:00:27.591Z,64.81
2018-02-15T01:02:55.169Z,64.54
2018-02-15T01:05:22.696Z,64.74
2018-02-15T01:07:50.302Z,64.77
2018-02-15T01:10:17.826Z,64.63
2018-02-15T01:12:45.421Z,64.47
2018-02-15T01:15:12.927Z,64.63
2018-02-15T01:17:40.458Z,64.35
2018-02-15T01:20:08.217Z,64.84
2018-02-15T01:22:36.966Z,64.39
2018-02-15T01:25:04.560Z,64.73
2018-02-15T01:27:32.120Z,64.12
2018-02-15T01:30:00.081Z,64.59
2018-02-15T01:32:28.429Z,63.86
2018-02-15T01:34:56.324Z,64.06
2018-02-15T01:37:23.943Z,64.62
2018-02-15T01:39:51.542Z,64.20
2018-02-15T01:42:19.100Z,63.92
2018-02-15T01:44:47.159Z,64.37
2018-02-15T01:47:14.739Z,64.50
2018-02-15T01:49:54.214Z,64.44
2018-02-15T01:52:21.739Z,63.94
2018-02-15T01:54:49.255Z,64.02
2018-02-15T01:57:16.944Z,64.43
2018-02-15T01:59:44.539Z,64.45
2018-02-15T02:02:12.273Z,64.80
2018-02-15T02:04:39.802Z,65.49
2018-02-15T02:07:07.354Z,64.64
2018-02-15T02:09:34.882Z,64.63
2018-02-15T02:12:02.430Z,64.54
2018-02-15T02:14:29.967Z,64.68
2018-02-15T02:16:57.488Z,65.18
2018-02-15T02:19:25.068Z,65.30
2018-02-15T02:21:52.590Z,66.70
2018-02-15T02:24:20.144Z,65.86
2018-02-15T02:26:47.670Z,64.65
2018-02-15T02:29:15.250Z,64.84
2018-02-15T02:31:42.766Z,64.88
2018-02-15T02:34:10.329Z,65.20
2018-02-15T02:36:37.855Z,66.10
2018-02-15T02:39:05.483Z,65.61
2018-02-15T02:41:33.033Z,66.10
2018-02-15T02:44:00.563Z,65.47
2018-02-15T02:46:28.116Z,65.88
2018-02-15T02:48:55.689Z,65.24
2018-02-15T02:51:23.248Z,65.57
2018-02-15T02:53:50.801Z,65.85
2018-02-15T02:56:19.417Z,65.49
2018-02-15T02:58:46.957Z,64.97
2018-02-15T03:01:14.506Z,65.29
2018-02-15T03:03:42.054Z,64.96
2018-02-15T03:06:09.583Z,64.55
2018-02-15T03:08:37.159Z,64.60
2018-02-15T03:11:04.713Z,65.47
2018-02-15T03:13:32.317Z,65.12
2018-02-15T03:15:59.842Z,64.81
2018-02-15T03:18:27.419Z,64.69
2018-02-15T03:20:54.947Z,64.86
2018-02-15T03:23:22.475Z,64.81
2018-02-15T03:25:50.098Z,64.92
2018-02-15T03:28:17.680Z,65.05
2018-02-15T03:30:45.234Z,65.73
2018-02-15T03:33:12.759Z,65.58
2018-02-15T03:35:40.310Z,65.23
2018-02-15T03:38:07.834Z,65.64
2018-02-15T03:40:35.383Z,65.31
2018-02-15T03:43:03.041Z,65.26
2018-02-15T03:45:30.599Z,65.14
2018-02-15T03:47:58.118Z,65.62
2018-02-15T03:50:25.703Z,65.93
2018-02-15T03:52:53.251Z,66.09
2018-02-15T03:55:21.726Z,66.51
2018-02-15T03:57:49.279Z,66.38
2018-02-15T04:00:16.805Z,66.34
2018-02-15T04:02:44.423Z,66.34
2018-02-15T04:05:11.965Z,66.86
2018-02-15T04:07:39.514Z,66.16
2018-02-15T04:10:07.041Z,66.45
2018-02-15T04:12:34.616Z,66.23
2018-02-15T04:15:02.169Z,65.77
2018-02-15T04:17:29.780Z,66.33
2018-02-15T04:19:57.350Z,65.95
2018-02-15T04:22:24.895Z,66.26
2018-02-15T04:24:52.454Z,65.98
2018-02-15T04:27:19.980Z,65.75
2018-02-15T04:29:47.540Z,65.74
2018-02-15T04:32:15.059Z,65.58
2018-02-15T04:34:42.614Z,65.32
2018-02-15T04:37:10.149Z,66.86
2018-02-15T04:39:37.717Z,65.83
2018-02-15T04:42:05.246Z,65.98
2018-02-15T04:44:32.769Z,67.16
2018-02-15T04:47:00.320Z,67.63
2018-02-15T04:49:27.856Z,66.63
2018-02-15T04:51:55.423Z,67.07
2018-02-15T04:54:22.956Z,67.73
2018-02-15T04:56:50.535Z,69.04
2018-02-15T04:59:18.064Z,69.34
2018-02-15T05:01:45.630Z,68.75
2018-02-15T05:04:13.172Z,69.05
2018-02-15T05:06:40.691Z,71.05
2018-02-15T05:09:08.271Z,70.82
2018-02-15T05:11:35.833Z,72.93
2018-02-15T05:14:03.643Z,73.14
2018-02-15T05:16:31.200Z,75.12
2018-02-15T05:18:58.831Z,74.88
2018-02-15T05:21:26.378Z,76.44
2018-02-15T05:23:53.985Z,77.97
2018-02-15T05:26:22.133Z,77.34
2018-02-15T05:28:49.714Z,78.18
2018-02-15T05:31:17.241Z,78.74
2018-02-15T05:33:45.023Z,81.68
2018-02-15T05:36:12.567Z,81.08
2018-02-15T05:38:40.095Z,81.57
2018-02-15T05:41:07.649Z,80.30
2018-02-15T05:43:35.276Z,83.45
2018-02-15T05:46:02.830Z,81.95
2018-02-15T05:48:30.354Z,82.20
2018-02-15T05:50:57.907Z,81.71
2018-02-15T05:53:25.464Z,81.34
2018-02-15T05:55:53.073Z,81.51
2018-02-15T05:58:20.612Z,82.62
2018-02-15T06:00:48.147Z,81.57
2018-02-15T06:03:15.699Z,82.21
2018-02-15T06:05:43.220Z,83.54
2018-02-15T06:08:10.774Z,83.85
2018-02-15T06:10:38.298Z,84.29
2018-02-15T06:13:05.851Z,84.21
2018-02-15T06:15:33.445Z,85.03
2018-02-15T06:18:00.980Z,83.54
2018-02-15T06:20:28.506Z,85.05
2018-02-15T06:22:56.061Z,84.13
2018-02-15T06:25:23.589Z,83.47
2018-02-15T06:27:51.190Z,84.46
2018-02-15T06:30:18.744Z,84.72
2018-02-15T06:32:46.275Z,85.81
2018-02-15T06:35:13.908Z,83.94
2018-02-15T06:37:41.426Z,84.00
2018-02-15T06:40:08.980Z,85.67
2018-02-15T06:42:36.631Z,85.58
2018-02-15T06:45:04.174Z,86.73
2018-02-15T06:47:31.993Z,87.30
2018-02-15T06:49:59.560Z,86.69
2018-02-15T06:52:27.228Z,87.40
2018-02-15T06:54:54.765Z,87.10
2018-02-15T06:57:22.467Z,88.84
2018-02-15T06:59:50.072Z,87.29
2018-02-15T07:02:17.646Z,85.67
2018-02-15T07:04:45.174Z,86.60
2018-02-15T07:07:12.743Z,86.08
2018-02-15T07:09:40.373Z,86.44
2018-02-15T07:12:07.931Z,87.28
2018-02-15T07:14:35.459Z,88.14
2018-02-15T07:17:03.042Z,86.71
2018-02-15T07:19:30.562Z,87.44
2018-02-15T07:21:58.091Z,88.21
2018-02-15T07:24:25.672Z,88.27
2018-02-15T07:26:55.493Z,86.52
2018-02-15T07:29:23.714Z,86.18
2018-02-15T07:31:51.231Z,87.56
2018-02-15T07:34:18.804Z,86.69
2018-02-15T07:36:46.353Z,86.29
2018-02-15T07:39:13.930Z,86.20
2018-02-15T07:41:41.489Z,87.04
2018-02-15T07:44:09.066Z,87.96
2018-02-15T07:46:36.589Z,87.73
2018-02-15T07:49:04.114Z,86.82
2018-02-15T07:51:31.742Z,90.06
2018-02-15T07:53:59.414Z,88.79
2018-02-15T07:56:27.198Z,86.66
2018-02-15T07:58:54.796Z,88.01
2018-02-15T08:01:23.000Z,86.58
2018-02-15T08:03:51.430Z,88.23
2018-02-15T08:06:20.423Z,87.32
2018-02-15T08:08:48.057Z,86.85
2018-02-15T08:11:15.690Z,86.61
2018-02-15T08:13:43.336Z,86.91
2018-02-15T08:16:10.839Z,88.82
2018-02-15T08:18:38.809Z,87.54
2018-02-15T08:21:06.440Z,86.94
2018-02-15T08:23:34.022Z,87.10
2018-02-15T08:26:01.696Z,87.21
2018-02-15T08:28:29.251Z,86.82
2018-02-15T08:30:56.778Z,86.79
2018-02-15T08:33:25.174Z,86.48
2018-02-15T08:35:52.930Z,86.37
2018-02-15T08:38:20.462Z,86.46
2018-02-15T08:40:48.064Z,87.46
2018-02-15T08:43:15.615Z,86.75
2018-02-15T08:45:43.195Z,87.87
2018-02-15T08:48:10.720Z,86.83
2018-02-15T08:50:38.299Z,86.29
2018-02-15T08:53:05.844Z,86.93
2018-02-15T08:55:33.402Z,86.08
2018-02-15T08:58:01.326Z,86.61
2018-02-15T09:00:29.206Z,87.59
2018-02-15T09:02:56.732Z,87.14
2018-02-15T09:05:24.263Z,86.89
2018-02-15T09:07:51.837Z,86.72
2018-02-15T09:10:19.389Z,86.63
2018-02-15T09:12:46.994Z,86.66
2018-02-15T09:15:14.519Z,89.61
2018-02-15T09:17:42.070Z,88.70
2018-02-15T09:20:09.608Z,87.00
2018-02-15T09:22:38.161Z,87.07
2018-02-15T09:25:05.756Z,87.20
2018-02-15T09:27:33.308Z,88.56
2018-02-15T09:30:00.837Z,87.63
2018-02-15T09:32:28.487Z,88.50
2018-02-15T09:34:56.011Z,87.07
2018-02-15T09:37:24.515Z,86.54
2018-02-15T09:39:52.134Z,86.64
2018-02-15T09:42:19.692Z,88.04
2018-02-15T09:44:47.365Z,87.23
2018-02-15T09:47:14.899Z,86.93
2018-02-15T09:49:42.451Z,87.17
2018-02-15T09:52:10.258Z,86.82
2018-02-15T09:54:39.389Z,86.76
2018-02-15T09:57:06.907Z,86.27
2018-02-15T09:59:34.484Z,86.40
2018-02-15T10:02:03.058Z,86.82
2018-02-15T10:04:30.592Z,87.52
2018-02-15T10:06:58.414Z,87.41
2018-02-15T10:09:26.545Z,86.46
2018-02-15T10:11:54.615Z,86.92
2018-02-15T10:14:22.850Z,87.60
2018-02-15T10:16:50.476Z,86.66
2018-02-15T10:19:18.109Z,86.49
2018-02-15T10:21:45.704Z,86.52
2018-02-15T10:24:17.861Z,87.75
2018-02-15T10:26:51.784Z,87.82
2018-02-15T10:29:23.685Z,87.37
2018-02-15T10:31:56.064Z,86.25
2018-02-15T10:34:29.290Z,87.53
2018-02-15T10:39:40.149Z,88.62
2018-02-15T10:42:13.955Z,88.52
2018-02-15T10:44:46.520Z,88.76
2018-02-15T10:47:23.336Z,87.99
2018-02-15T10:49:56.632Z,86.68
2018-02-15T10:52:30.181Z,86.77
2018-02-15T10:55:04.345Z,88.31
2018-02-15T11:00:14.398Z,87.58
2018-02-15T11:02:46.254Z,87.04
2018-02-15T11:05:19.692Z,86.69
2018-02-15T11:07:50.691Z,88.45
2018-02-15T11:10:22.030Z,88.15
2018-02-15T11:12:54.220Z,87.67
2018-02-15T11:15:26.348Z,87.48
2018-02-15T11:18:00.206Z,88.51
2018-02-15T11:20:31.378Z,87.71
2018-02-15T11:23:08.089Z,87.61
2018-02-15T11:25:40.582Z,87.59
2018-02-15T11:28:10.371Z,86.90
2018-02-15T11:30:38.018Z,86.79
2018-02-15T11:33:05.620Z,86.65
2018-02-15T11:35:33.147Z,86.86
2018-02-15T11:38:00.676Z,87.48
2018-02-15T11:40:28.254Z,87.63
2018-02-15T11:42:56.431Z,87.20
2018-02-15T11:45:23.982Z,87.76
2018-02-15T11:47:51.510Z,88.04
2018-02-15T11:50:19.055Z,89.64
2018-02-15T11:52:47.133Z,88.42
2018-02-15T11:55:14.687Z,88.09
2018-02-15T11:57:42.218Z,88.12
2018-02-15T12:00:09.794Z,89.39
2018-02-15T12:02:37.324Z,88.76
2018-02-15T12:05:04.851Z,87.88
2018-02-15T12:07:32.401Z,90.09
2018-02-15T12:09:59.926Z,88.72
2018-02-15T12:12:27.477Z,88.55
2018-02-15T12:14:55.011Z,87.81
2018-02-15T12:17:22.561Z,88.19
2018-02-15T12:19:50.092Z,87.97
2018-02-15T12:22:17.638Z,88.59
2018-02-15T12:24:51.448Z,87.81
2018-02-15T12:27:19.245Z,88.31
2018-02-15T12:29:46.789Z,87.94
2018-02-15T12:32:14.350Z,87.58
2018-02-15T12:34:44.871Z,87.90
2018-02-15T12:37:13.594Z,89.14
2018-02-15T12:39:42.810Z,88.39
2018-02-15T12:42:10.658Z,87.88
2018-02-15T12:44:39.354Z,89.02
2018-02-15T12:47:07.491Z,88.79
2018-02-15T12:49:37.635Z,88.20
2018-02-15T12:52:05.893Z,88.25
2018-02-15T12:54:35.297Z,87.90
2018-02-15T12:57:02.998Z,88.07
2018-02-15T12:59:33.462Z,88.25
2018-02-15T13:02:03.207Z,89.45
2018-02-15T13:04:32.823Z,91.08
2018-02-15T13:07:00.910Z,90.22
2018-02-15T13:09:35.208Z,89.28
2018-02-15T13:12:11.466Z,89.18
2018-02-15T13:14:45.215Z,89.32
2018-02-15T13:20:04.800Z,89.08
2018-02-15T13:22:47.872Z,89.12
2018-02-15T13:28:09.553Z,89.27
2018-02-15T13:30:46.629Z,89.19
2018-02-15T13:33:21.029Z,88.66
2018-02-15T13:41:07.490Z,89.06
2018-02-15T13:43:41.744Z,88.53
2018-02-15T13:46:16.454Z,89.69
2018-02-15T13:48:48.243Z,89.92
2018-02-15T13:51:27.781Z,88.90
2018-02-15T13:54:02.679Z,89.94
2018-02-15T13:56:38.424Z,90.49
2018-02-15T14:01:46.212Z,89.49
2018-02-15T14:04:19.579Z,89.31
2018-02-15T14:06:52.241Z,89.45
2018-02-15T14:09:24.976Z,88.94
2018-02-15T14:11:57.537Z,89.05
2018-02-15T14:14:32.381Z,89.61
2018-02-15T14:17:06.319Z,90.85
2018-02-15T14:19:39.868Z,90.40
2018-02-15T14:22:11.345Z,89.25
2018-02-15T14:24:40.074Z,89.21
2018-02-15T14:27:08.099Z,89.47
2018-02-15T14:29:37.948Z,89.17
2018-02-15T14:32:10.080Z,89.99
2018-02-15T14:34:40.094Z,90.85
2018-02-15T14:37:08.884Z,90.53
2018-02-15T14:39:38.596Z,90.08
2018-02-15T14:42:06.343Z,89.58
2018-02-15T14:44:34.498Z,89.90
2018-02-15T14:47:02.322Z,89.65
2018-02-15T14:49:31.153Z,89.98
2018-02-15T14:52:00.483Z,90.46
2018-02-15T14:54:28.999Z,90.25
2018-02-15T14:57:01.466Z,90.16
2018-02-15T14:59:29.359Z,90.53
2018-02-15T15:01:58.757Z,90.52
2018-02-15T15:04:28.111Z,89.85
2018-02-15T15:06:58.165Z,90.44
2018-02-15T15:09:28.306Z,90.45
2018-02-15T15:11:59.976Z,90.46
2018-02-15T15:14:28.922Z,89.96
2018-02-15T15:16:59.222Z,90.09
2018-02-15T15:19:29.954Z,89.95
2018-02-15T15:21:59.296Z,89.87
2018-02-15T15:24:28.136Z,89.88
2018-02-15T15:26:56.549Z,89.78
2018-02-15T15:29:27.866Z,89.54
2018-02-15T15:31:56.450Z,89.68
2018-02-15T15:34:25.572Z,90.85
2018-02-15T15:36:53.140Z,89.81
2018-02-15T15:39:22.839Z,90.02
2018-02-15T15:41:50.921Z,90.34
2018-02-15T15:44:19.449Z,90.21
2018-02-15T15:46:47.028Z,90.45
2018-02-15T15:49:14.578Z,90.25
2018-02-15T15:51:42.175Z,89.91
2018-02-15T15:54:09.711Z,92.02
2018-02-15T15:56:37.937Z,92.83
2018-02-15T15:59:05.795Z,93.24
2018-02-15T16:01:33.623Z,91.70
2018-02-15T16:04:02.168Z,91.06
2018-02-15T16:06:29.694Z,91.00
2018-02-15T16:08:57.876Z,90.95
2018-02-15T16:11:25.470Z,90.21
2018-02-15T16:13:53.055Z,90.68
2018-02-15T16:16:20.604Z,90.02
2018-02-15T16:18:49.058Z,90.06
2018-02-15T16:21:16.583Z,90.06
2018-02-15T16:23:45.631Z,90.43
2018-02-15T16:26:13.189Z,91.07
2018-02-15T16:28:40.739Z,90.70
2018-02-15T16:31:08.292Z,90.66
2018-02-15T16:33:35.873Z,90.21
2018-02-15T16:36:03.422Z,90.04
2018-02-15T16:38:31.150Z,90.52
2018-02-15T16:40:58.754Z,90.48
2018-02-15T16:43:29.707Z,90.04
2018-02-15T16:45:59.511Z,90.06
2018-02-15T16:48:27.988Z,90.58
2018-02-15T16:50:58.258Z,90.41
2018-02-15T16:56:16.414Z,90.02
2018-02-15T16:58:48.880Z,89.97
2018-02-15T17:01:19.274Z,89.57
2018-02-15T17:03:48.391Z,89.72
2018-02-15T17:06:19.151Z,90.41
2018-02-15T17:08:48.078Z,90.31
2018-02-15T17:11:16.651Z,90.92
2018-02-15T17:13:46.231Z,90.17
2018-02-15T17:16:14.585Z,90.12
2018-02-15T17:18:45.809Z,91.75
2018-02-15T17:21:15.623Z,92.74
2018-02-15T17:23:44.490Z,92.14
2018-02-15T17:26:14.038Z,92.15
2018-02-15T17:28:43.348Z,91.52
2018-02-15T17:31:11.106Z,91.19
2018-02-15T17:33:40.629Z,90.31
2018-02-15T17:36:08.818Z,89.86
2018-02-15T17:38:38.131Z,90.54
2018-02-15T17:41:07.075Z,90.22
2018-02-15T17:43:35.831Z,90.25
2018-02-15T17:48:44.714Z,90.79
2018-02-15T17:51:14.023Z,90.39
2018-02-15T17:53:44.787Z,91.47
2018-02-15T17:56:14.288Z,90.57
2018-02-15T17:58:43.225Z,90.61
2018-02-15T18:01:14.608Z,91.84
2018-02-15T18:03:42.628Z,90.71
2018-02-15T18:06:11.328Z,90.83
2018-02-15T18:08:41.729Z,90.52
2018-02-15T18:11:11.163Z,91.48
2018-02-15T18:13:41.636Z,93.08
2018-02-15T18:16:12.109Z,91.15
2018-02-15T18:18:41.564Z,92.66
2018-02-15T18:21:09.992Z,91.45
2018-02-15T18:23:40.130Z,91.41
2018-02-15T18:28:51.193Z,90.28
2018-02-15T18:31:18.779Z,90.42
2018-02-15T18:33:46.458Z,90.73
2018-02-15T18:36:15.446Z,90.58
2018-02-15T18:38:43.686Z,91.09
2018-02-15T18:41:11.210Z,90.63
2018-02-15T18:43:38.738Z,90.36
2018-02-15T18:46:06.296Z,90.17
2018-02-15T18:48:33.815Z,90.21
2018-02-15T18:51:01.398Z,90.51
2018-02-15T18:53:29.130Z,90.15
2018-02-15T18:55:56.719Z,90.16
2018-02-15T18:58:24.279Z,89.95
2018-02-15T19:00:51.839Z,90.11
2018-02-15T19:03:19.392Z,90.15
2018-02-15T19:05:47.035Z,90.06
2018-02-15T19:08:15.054Z,90.08
2018-02-15T19:10:42.613Z,89.88
2018-02-15T19:13:10.141Z,89.58
2018-02-15T19:15:37.672Z,91.27
2018-02-15T19:18:05.222Z,90.69
2018-02-15T19:20:32.746Z,90.17
2018-02-15T19:23:00.304Z,89.94
2018-02-15T19:25:27.826Z,90.20
2018-02-15T19:27:56.259Z,90.01
2018-02-15T19:30:24.888Z,90.08
2018-02-15T19:32:53.411Z,89.63
2018-02-15T19:35:20.963Z,90.27
2018-02-15T19:37:48.514Z,90.22
2018-02-15T19:40:16.037Z,90.39
2018-02-15T19:42:43.594Z,90.17
2018-02-15T19:45:11.122Z,90.15
2018-02-15T19:47:39.083Z,90.97
2018-02-15T19:50:06.803Z,90.91
2018-02-15T19:52:34.323Z,90.49
2018-02-15T19:55:01.900Z,90.15
2018-02-15T19:57:29.531Z,90.62
2018-02-15T19:59:57.086Z,90.07
2018-02-15T20:02:24.610Z,90.03
2018-02-15T20:04:52.202Z,89.98
2018-02-15T20:07:19.746Z,90.09
2018-02-15T20:09:47.314Z,90.25
2018-02-15T20:12:14.844Z,90.37
2018-02-15T20:14:42.398Z,90.21
2018-02-15T20:17:10.994Z,90.81
2018-02-15T20:19:49.170Z,90.59
2018-02-15T20:22:16.706Z,90.26
2018-02-15T20:24:44.231Z,91.31
2018-02-15T20:27:17.516Z,90.94
2018-02-15T20:29:47.584Z,90.72
2018-02-15T20:32:16.294Z,90.54
2018-02-15T20:34:43.891Z,90.51
2018-02-15T20:37:11.438Z,90.40
2018-02-15T20:39:44.652Z,90.94
2018-02-15T20:42:12.247Z,90.78
2018-02-15T20:44:39.813Z,90.17
2018-02-15T20:47:07.478Z,90.25
2018-02-15T20:52:40.183Z,90.65
2018-02-15T20:55:13.284Z,91.06
2018-02-15T20:57:40.847Z,90.50
2018-02-15T21:00:08.491Z,90.52
2018-02-15T21:02:36.146Z,90.20
2018-02-15T21:05:03.697Z,90.00
2018-02-15T21:07:31.229Z,90.34
2018-02-15T21:10:00.548Z,89.87
2018-02-15T21:12:28.810Z,90.06
2018-02-15T21:14:56.427Z,90.02
2018-02-15T21:17:24.707Z,90.34
2018-02-15T21:19:52.403Z,90.83
2018-02-15T21:22:20.511Z,90.20
2018-02-15T21:24:48.169Z,90.41
2018-02-15T21:27:16.960Z,90.36
2018-02-15T21:29:46.593Z,90.22
2018-02-15T21:32:14.430Z,91.44
2018-02-15T21:34:41.991Z,90.68
2018-02-15T21:37:09.938Z,91.56
2018-02-15T21:39:37.528Z,92.85
2018-02-15T21:42:05.431Z,92.87
2018-02-15T21:44:33.131Z,91.68
2018-02-15T21:47:01.038Z,92.15
2018-02-15T21:49:28.631Z,91.33
2018-02-15T21:51:58.472Z,91.00
2018-02-15T21:54:26.187Z,93.38
2018-02-15T21:56:53.751Z,92.35
2018-02-15T21:59:22.804Z,91.29
2018-02-15T22:01:52.614Z,91.68
2018-02-15T22:04:21.992Z,92.61
2018-02-15T22:06:52.906Z,91.83
2018-02-15T22:09:21.279Z,91.30
2018-02-15T22:11:49.358Z,91.07
2018-02-15T22:14:16.930Z,92.44
2018-02-15T22:16:44.525Z,92.65
2018-02-15T22:19:12.086Z,92.64
2018-02-15T22:21:39.914Z,92.29
2018-02-15T22:24:07.868Z,91.90
2018-02-15T22:26:36.785Z,92.51
2018-02-15T22:29:04.427Z,91.82
2018-02-15T22:31:32.724Z,91.25
2018-02-15T22:34:00.307Z,92.31
2018-02-15T22:36:31.003Z,92.28
2018-02-15T22:38:59.335Z,91.91
2018-02-15T22:41:27.513Z,91.63
2018-02-15T22:43:55.582Z,91.61
2018-02-15T22:46:24.117Z,91.06
2018-02-15T22:48:51.746Z,90.96
2018-02-15T22:51:19.393Z,90.52
2018-02-15T22:53:48.419Z,90.77
2018-02-15T22:56:16.314Z,91.00
2018-02-15T22:58:43.852Z,90.51
2018-02-15T23:01:14.103Z,90.51
2018-02-15T23:03:41.653Z,90.27
2018-02-15T23:06:09.232Z,90.60
2018-02-15T23:08:36.810Z,90.30
2018-02-15T23:11:04.358Z,90.54
2018-02-15T23:13:32.012Z,90.73
2018-02-15T23:16:00.590Z,90.92
2018-02-15T23:18:28.485Z,90.49
2018-02-15T23:20:56.042Z,90.69
2018-02-15T23:23:23.593Z,90.40
2018-02-15T23:25:51.194Z,90.32
2018-02-15T23:28:18.736Z,90.91
2018-02-15T23:30:46.578Z,90.91
2018-02-15T23:33:14.216Z,90.61
2018-02-15T23:35:41.839Z,90.49
2018-02-15T23:38:09.441Z,90.50
2018-02-15T23:40:37.014Z,91.14
2018-02-15T23:43:04.638Z,91.51
2018-02-15T23:45:32.310Z,91.11
2018-02-15T23:48:00.402Z,91.28
2018-02-15T23:50:27.956Z,90.43
2018-02-15T23:52:55.949Z,90.19
2018-02-15T23:55:23.770Z,90.39
2018-02-15T23:57:51.657Z,90.53
